This is the latest recevied weather packets stored in our database for station/object HS5AU-13. If no packets are shown the sender has not sent any weather packets the latest 10 day(s).
| Time | Temp. | Humidity | Pressure | Rain* | Wind** | Luminosity | Snow |
|---|---|---|---|---|---|---|---|
| 1788010500 | 23.33° C | 98% | 1000.5 hPa | 0 mm | - | 2 W/m² | - |
| 1788009900 | 23.33° C | 97% | 1000.3 hPa | 0 mm | - | 2 W/m² | - |
| 1788009300 | 23.33° C | 97% | 1000.1 hPa | 0 mm | - | 2 W/m² | - |
| 1788008701 | 23.33° C | 96% | 999.9 hPa | 0 mm | - | 2 W/m² | - |
| 1788008109 | 23.33° C | 96% | 999.9 hPa | 0 mm | - | 2 W/m² | - |
| 1788007500 | 23.33° C | 96% | 999.7 hPa | 0 mm | - | 2 W/m² | - |
| 1788006900 | 23.33° C | 95% | 999.4 hPa | 0 mm | - | 2 W/m² | - |
| 1788006300 | 23.33° C | 96% | 999.3 hPa | 0 mm | - | 2 W/m² | - |
| 1788005700 | 23.33° C | 96% | 999.1 hPa | 0 mm | - | 2 W/m² | - |
| 1788005100 | 23.33° C | 96% | 998.9 hPa | 0 mm | - | 2 W/m² | - |
| 1788004500 | 23.33° C | 95% | 998.7 hPa | 0 mm | - | 2 W/m² | - |
| 1788003900 | 23.89° C | 95% | 998.5 hPa | 0 mm | - | 2 W/m² | - |
| 1788003300 | 23.89° C | 95% | 998.5 hPa | 0 mm | - | 2 W/m² | - |
| 1788002700 | 23.89° C | 94% | 998.2 hPa | 0 mm | - | 10 W/m² | - |
| 1788002100 | 23.89° C | 94% | 998.1 hPa | 0 mm | - | 16 W/m² | - |
| 1788001500 | 24.44° C | 93% | 998.1 hPa | 0 mm | - | 25 W/m² | - |
| 1788000900 | 24.44° C | 93% | 998.1 hPa | 0 mm | - | 34 W/m² | - |
| 1788000300 | 24.44° C | 92% | 997.9 hPa | 0 mm | - | 42 W/m² | - |
| 1787999700 | 25° C | 93% | 997.9 hPa | 0 mm | - | 59 W/m² | - |
| 1787999100 | 24.44° C | 91% | 998.1 hPa | 0 mm | - | 68 W/m² | - |
| 1787998500 | 25° C | 93% | 997.9 hPa | 0 mm | - | 72 W/m² | - |
| 1787997900 | 25.56° C | 92% | 998.2 hPa | 0 mm | - | 100 W/m² | - |
| 1787997300 | 25.56° C | 91% | 998.3 hPa | 0 mm | - | 116 W/m² | - |
| 1787996700 | 25.56° C | 92% | 997.8 hPa | 0 mm | - | 126 W/m² | - |
| 1787996100 | 25.56° C | 92% | 997.9 hPa | 0 mm | - | 141 W/m² | - |
* Rain latest hour (hover to see other rain measurements)
** Current wind speed in m/s (hover to see current wind gust speed)